createdAt,value
2023-03-14T00:00:17.831Z,98360.35
2023-03-14T00:02:44.368Z,98370.34
2023-03-14T00:05:11.000Z,98366.52
2023-03-14T00:07:39.224Z,98349.50
2023-03-14T00:10:13.320Z,98336.48
2023-03-14T00:12:40.674Z,98322.46
2023-03-14T00:15:08.160Z,98310.95
2023-03-14T00:17:35.644Z,98297.59
2023-03-14T00:20:09.212Z,98280.97
2023-03-14T00:22:37.020Z,98281.81
2023-03-14T00:25:05.132Z,98304.09
2023-03-14T00:27:32.055Z,98306.08
2023-03-14T00:29:58.516Z,98293.08
2023-03-14T00:32:25.271Z,98295.05
2023-03-14T00:34:51.925Z,98301.05
2023-03-14T00:37:18.593Z,98307.24
2023-03-14T00:39:47.271Z,98309.23
2023-03-14T00:42:13.740Z,98319.98
2023-03-14T00:44:40.241Z,98317.09
2023-03-14T00:47:06.780Z,98330.38
2023-03-14T00:49:33.417Z,98339.54
2023-03-14T00:51:59.921Z,98338.39
2023-03-14T00:54:26.643Z,98345.59
2023-03-14T00:56:53.148Z,98351.75
2023-03-14T00:59:22.310Z,98342.03
2023-03-14T01:01:48.973Z,98331.48
2023-03-14T01:04:15.422Z,98326.80
2023-03-14T01:06:41.909Z,98314.46
2023-03-14T01:09:08.586Z,98305.45
2023-03-14T01:11:36.119Z,98294.15
2023-03-14T01:14:03.576Z,98277.73
2023-03-14T01:16:33.528Z,98276.52
2023-03-14T01:19:00.232Z,98279.00
2023-03-14T01:21:30.242Z,98287.95
2023-03-14T01:24:01.146Z,98286.11
2023-03-14T01:26:30.241Z,98291.30
2023-03-14T01:28:57.595Z,98272.90
2023-03-14T01:31:24.908Z,98276.39
2023-03-14T01:33:51.908Z,98272.50
2023-03-14T01:36:18.744Z,98261.17
2023-03-14T01:38:48.719Z,98260.52
2023-03-14T01:41:19.357Z,98256.31
2023-03-14T01:43:51.143Z,98254.84
2023-03-14T01:46:19.943Z,98259.43
2023-03-14T01:48:55.683Z,98278.98
2023-03-14T01:51:34.643Z,98285.73
2023-03-14T01:54:11.066Z,98281.61
2023-03-14T01:56:39.059Z,98262.43
2023-03-14T01:59:08.876Z,98241.27
2023-03-14T02:01:35.967Z,98232.48
2023-03-14T02:04:05.811Z,98253.27
2023-03-14T02:06:58.287Z,98247.69
2023-03-14T02:09:25.068Z,98245.14
2023-03-14T02:11:55.589Z,98245.79
2023-03-14T02:14:29.661Z,98243.48
2023-03-14T02:16:56.387Z,98256.05
2023-03-14T02:19:36.931Z,98251.30
2023-03-14T02:22:12.448Z,98254.05
2023-03-14T02:25:09.137Z,98257.69
2023-03-14T02:27:35.940Z,98264.66
2023-03-14T02:30:04.381Z,98268.24
2023-03-14T02:32:33.800Z,98269.45
2023-03-14T02:35:04.310Z,98259.77
2023-03-14T02:37:43.760Z,98251.56
2023-03-14T02:40:11.389Z,98249.70
2023-03-14T02:42:37.853Z,98242.11
2023-03-14T02:45:10.176Z,98239.97
2023-03-14T02:47:42.494Z,98236.89
2023-03-14T02:50:21.416Z,98226.99
2023-03-14T02:52:47.852Z,98224.45
2023-03-14T02:55:14.555Z,98212.52
2023-03-14T02:57:41.090Z,98209.95
2023-03-14T03:00:09.912Z,98210.35
2023-03-14T03:02:36.659Z,98211.05
2023-03-14T03:05:03.419Z,98199.73
2023-03-14T03:07:29.847Z,98205.14
2023-03-14T03:09:56.379Z,98200.38
2023-03-14T03:12:22.949Z,98197.49
2023-03-14T03:14:49.609Z,98191.96
2023-03-14T03:17:16.728Z,98191.90
2023-03-14T03:19:43.700Z,98191.80
2023-03-14T03:22:10.410Z,98192.66
2023-03-14T03:24:36.888Z,98193.00
2023-03-14T03:27:03.449Z,98185.16
2023-03-14T03:29:33.246Z,98184.70
2023-03-14T03:31:59.872Z,98185.64
2023-03-14T03:34:28.350Z,98186.79
2023-03-14T03:36:57.756Z,98181.85
2023-03-14T03:39:24.394Z,98178.44
2023-03-14T03:41:50.807Z,98167.10
2023-03-14T03:44:20.062Z,98178.02
2023-03-14T03:46:46.495Z,98174.52
2023-03-14T03:49:12.921Z,98175.77
2023-03-14T03:51:40.965Z,98185.59
2023-03-14T03:54:07.853Z,98178.02
2023-03-14T03:56:34.645Z,98180.63
2023-03-14T03:59:01.170Z,98192.94
2023-03-14T04:01:28.039Z,98215.64
2023-03-14T04:03:54.894Z,98217.38
2023-03-14T04:06:22.084Z,98241.73
2023-03-14T04:08:49.017Z,98250.53
2023-03-14T04:11:17.234Z,98252.19
2023-03-14T04:13:44.851Z,98232.30
2023-03-14T04:16:18.230Z,98218.49
2023-03-14T04:18:45.196Z,98206.61
2023-03-14T04:21:12.477Z,98208.02
2023-03-14T04:23:39.087Z,98206.01
2023-03-14T04:26:06.106Z,98210.27
2023-03-14T04:28:33.101Z,98203.34
2023-03-14T04:31:00.122Z,98198.45
2023-03-14T04:33:27.069Z,98198.02
2023-03-14T04:35:57.217Z,98195.90
2023-03-14T04:38:24.065Z,98194.86
2023-03-14T04:40:51.012Z,98197.73
2023-03-14T04:43:18.062Z,98184.30
2023-03-14T04:45:44.775Z,98178.35
2023-03-14T04:48:11.591Z,98170.68
2023-03-14T04:50:38.613Z,98175.89
2023-03-14T04:53:05.816Z,98171.83
2023-03-14T04:55:33.564Z,98167.34
2023-03-14T04:58:00.552Z,98163.97
2023-03-14T05:00:27.371Z,98160.61
2023-03-14T05:02:54.190Z,98160.66
2023-03-14T05:05:21.477Z,98157.31
2023-03-14T05:07:48.337Z,98152.90
2023-03-14T05:10:15.521Z,98152.63
2023-03-14T05:12:42.202Z,98152.25
2023-03-14T05:15:09.924Z,98147.33
2023-03-14T05:17:36.816Z,98143.84
2023-03-14T05:20:09.812Z,98141.77
2023-03-14T05:22:36.799Z,98138.52
2023-03-14T05:25:03.816Z,98147.08
2023-03-14T05:27:30.592Z,98139.98
2023-03-14T05:29:57.339Z,98137.20
2023-03-14T05:32:24.315Z,98138.21
2023-03-14T05:34:51.128Z,98137.62
2023-03-14T05:37:19.053Z,98138.18
2023-03-14T05:39:46.950Z,98144.27
2023-03-14T05:42:14.574Z,98142.64
2023-03-14T05:44:41.893Z,98151.46
2023-03-14T05:47:11.267Z,98146.76
2023-03-14T05:49:37.939Z,98148.02
2023-03-14T05:52:05.617Z,98143.70
2023-03-14T05:54:32.402Z,98144.14
2023-03-14T05:56:59.563Z,98140.81
2023-03-14T05:59:26.544Z,98145.15
2023-03-14T06:01:53.229Z,98157.00
2023-03-14T06:04:22.507Z,98151.98
2023-03-14T06:06:49.396Z,98155.16
2023-03-14T06:09:16.315Z,98150.41
2023-03-14T06:11:43.046Z,98157.41
2023-03-14T06:14:10.409Z,98164.59
2023-03-14T06:16:37.128Z,98163.13
2023-03-14T06:19:04.187Z,98170.60
2023-03-14T06:21:31.464Z,98162.54
2023-03-14T06:23:58.266Z,98157.61
2023-03-14T06:26:24.961Z,98157.45
2023-03-14T06:28:52.035Z,98164.04
2023-03-14T06:31:18.900Z,98159.52
2023-03-14T06:33:45.642Z,98163.20
2023-03-14T06:36:12.566Z,98166.38
2023-03-14T06:38:39.390Z,98176.83
2023-03-14T06:41:07.362Z,98177.48
2023-03-14T06:43:34.237Z,98178.48
2023-03-14T06:46:00.932Z,98184.42
2023-03-14T06:48:28.220Z,98191.98
2023-03-14T06:50:54.915Z,98194.20
2023-03-14T06:53:21.659Z,98184.02
2023-03-14T06:55:48.495Z,98187.58
2023-03-14T06:58:15.590Z,98194.34
2023-03-14T07:00:42.420Z,98187.11
2023-03-14T07:03:11.598Z,98189.13
2023-03-14T07:05:41.503Z,98191.05
2023-03-14T07:08:09.601Z,98198.09
2023-03-14T07:10:36.782Z,98198.83
2023-03-14T07:13:04.066Z,98195.11
2023-03-14T07:15:30.753Z,98192.73
2023-03-14T07:17:57.374Z,98196.33
2023-03-14T07:20:24.496Z,98195.68
2023-03-14T07:22:52.066Z,98194.66
2023-03-14T07:25:19.283Z,98191.73
2023-03-14T07:27:47.714Z,98187.30
2023-03-14T07:30:15.466Z,98189.50
2023-03-14T07:32:42.054Z,98189.20
2023-03-14T07:35:10.012Z,98194.37
2023-03-14T07:37:36.781Z,98187.98
2023-03-14T07:40:06.541Z,98191.92
2023-03-14T07:42:33.213Z,98189.89
2023-03-14T07:44:59.924Z,98192.35
2023-03-14T07:47:26.994Z,98197.25
2023-03-14T07:49:53.802Z,98192.20
2023-03-14T07:52:20.656Z,98196.31
2023-03-14T07:54:47.434Z,98200.58
2023-03-14T07:57:14.226Z,98215.03
2023-03-14T07:59:40.804Z,98210.83
2023-03-14T08:02:12.968Z,98228.18
2023-03-14T08:04:40.935Z,98226.31
2023-03-14T08:07:07.666Z,98221.26
2023-03-14T08:09:34.286Z,98225.67
2023-03-14T08:12:01.179Z,98221.17
2023-03-14T08:14:30.238Z,98222.17
2023-03-14T08:16:57.039Z,98223.11
2023-03-14T08:19:23.785Z,98215.83
2023-03-14T08:21:50.364Z,98212.49
2023-03-14T08:24:17.278Z,98211.34
2023-03-14T08:26:44.606Z,98205.81
2023-03-14T08:29:11.781Z,98204.09
2023-03-14T08:31:38.881Z,98196.02
2023-03-14T08:34:07.762Z,98199.51
2023-03-14T08:36:35.443Z,98200.33
2023-03-14T08:39:02.523Z,98195.13
2023-03-14T08:41:29.562Z,98200.09
2023-03-14T08:43:56.370Z,98206.30
2023-03-14T08:46:22.893Z,98206.79
2023-03-14T08:48:49.521Z,98204.05
2023-03-14T08:51:16.408Z,98206.65
2023-03-14T08:53:43.325Z,98207.42
2023-03-14T08:56:11.290Z,98204.13
2023-03-14T08:58:39.026Z,98201.67
2023-03-14T09:01:10.482Z,98205.55
2023-03-14T09:03:37.592Z,98208.91
2023-03-14T09:06:05.915Z,98205.60
2023-03-14T09:08:32.942Z,98205.95
2023-03-14T09:10:59.885Z,98204.98
2023-03-14T09:13:26.820Z,98206.23
2023-03-14T09:15:55.060Z,98205.97
2023-03-14T09:18:22.735Z,98202.42
2023-03-14T09:20:50.754Z,98198.32
2023-03-14T09:23:17.559Z,98202.20
2023-03-14T09:25:44.296Z,98200.77
2023-03-14T09:28:11.022Z,98208.27
2023-03-14T09:30:37.966Z,98204.23
2023-03-14T09:33:04.940Z,98202.19
2023-03-14T09:35:31.758Z,98205.21
2023-03-14T09:37:58.391Z,98204.57
2023-03-14T09:40:25.852Z,98202.23
2023-03-14T09:42:53.767Z,98197.90
2023-03-14T09:45:27.693Z,98206.98
2023-03-14T09:47:59.834Z,98205.69
2023-03-14T09:50:31.060Z,98200.88
2023-03-14T09:53:03.986Z,98202.27
2023-03-14T09:55:30.589Z,98205.55
2023-03-14T09:58:04.713Z,98210.51
2023-03-14T10:00:32.646Z,98212.42
2023-03-14T10:03:14.685Z,98211.25
2023-03-14T10:05:42.852Z,98211.98
2023-03-14T10:08:13.661Z,98217.00
2023-03-14T10:10:41.080Z,98218.42
2023-03-14T10:13:10.625Z,98213.02
2023-03-14T10:15:38.681Z,98220.35
2023-03-14T10:18:13.843Z,98212.38
2023-03-14T10:20:43.548Z,98203.86
2023-03-14T10:23:13.572Z,98204.08
2023-03-14T10:26:01.413Z,98198.25
2023-03-14T10:28:34.510Z,98199.58
2023-03-14T10:31:02.129Z,98195.63
2023-03-14T10:33:31.694Z,98197.88
2023-03-14T10:36:21.138Z,98200.27
2023-03-14T10:38:48.641Z,98204.70
2023-03-14T10:41:28.461Z,98207.17
2023-03-14T10:43:58.726Z,98202.10
2023-03-14T10:46:28.349Z,98213.52
2023-03-14T10:48:55.447Z,98204.86
2023-03-14T10:51:30.916Z,98205.67
2023-03-14T10:54:03.208Z,98208.30
2023-03-14T10:56:36.246Z,98200.19
2023-03-14T10:59:04.816Z,98197.14
2023-03-14T11:01:40.987Z,98202.63
2023-03-14T11:04:36.883Z,98199.08
2023-03-14T11:07:35.564Z,98202.29
2023-03-14T11:10:08.550Z,98203.12
2023-03-14T11:13:03.412Z,98203.15
2023-03-14T11:15:48.898Z,98200.06
2023-03-14T11:18:33.060Z,98202.64
2023-03-14T11:21:07.771Z,98193.55
2023-03-14T11:23:45.945Z,98195.25
2023-03-14T11:26:28.505Z,98192.89
2023-03-14T11:29:03.305Z,98200.67
2023-03-14T11:31:34.873Z,98198.29
2023-03-14T11:34:19.711Z,98204.16
2023-03-14T11:36:54.480Z,98300.73
2023-03-14T11:39:22.476Z,98352.41
2023-03-14T11:42:04.718Z,98344.73
2023-03-14T11:44:38.204Z,98357.80
2023-03-14T11:47:19.409Z,98369.30
2023-03-14T11:49:57.811Z,98374.50
2023-03-14T11:52:51.111Z,98384.81
2023-03-14T11:55:27.201Z,98387.02
2023-03-14T11:58:02.805Z,98409.23
2023-03-14T12:00:31.521Z,98427.40
2023-03-14T12:03:01.481Z,98441.07
2023-03-14T12:05:40.817Z,98433.52
2023-03-14T12:08:10.317Z,98460.95
2023-03-14T12:11:00.589Z,98460.36
2023-03-14T12:13:37.143Z,98480.55
2023-03-14T12:16:19.773Z,98507.52
2023-03-14T12:18:47.030Z,98520.73
2023-03-14T12:21:14.301Z,98516.26
2023-03-14T12:23:52.504Z,98536.94
2023-03-14T12:26:26.935Z,98550.30
2023-03-14T12:29:26.413Z,98570.94
2023-03-14T12:32:02.257Z,98594.19
2023-03-14T12:34:43.408Z,98599.31
2023-03-14T12:37:10.653Z,98626.64
2023-03-14T12:39:44.929Z,98649.16
2023-03-14T12:42:15.214Z,98661.75
2023-03-14T12:44:50.108Z,98679.17
2023-03-14T12:47:20.350Z,98682.54
2023-03-14T12:49:59.085Z,98685.05
2023-03-14T12:52:49.247Z,98689.59
2023-03-14T12:55:43.178Z,98704.23
2023-03-14T12:58:36.332Z,98704.61
2023-03-14T13:01:15.791Z,98721.11
2023-03-14T13:03:58.865Z,98724.15
2023-03-14T13:06:54.770Z,98732.47
2023-03-14T13:09:27.470Z,98751.01
2023-03-14T13:12:03.181Z,98756.18
2023-03-14T13:14:34.225Z,98762.07
2023-03-14T13:17:33.693Z,98785.05
2023-03-14T13:20:06.404Z,98806.83
2023-03-14T13:22:38.031Z,98811.33
2023-03-14T13:25:09.119Z,98807.27
2023-03-14T13:27:38.990Z,98818.45
2023-03-14T13:30:20.021Z,98836.38
2023-03-14T13:32:48.775Z,98847.14
2023-03-14T13:35:19.081Z,98845.60
2023-03-14T13:37:46.430Z,98859.11
2023-03-14T13:40:21.604Z,98865.84
2023-03-14T13:42:49.341Z,98874.41
2023-03-14T13:45:17.998Z,98878.89
2023-03-14T13:47:48.860Z,98880.73
2023-03-14T13:50:20.681Z,98884.55
2023-03-14T13:52:49.244Z,98895.52
2023-03-14T13:55:19.645Z,98894.46
2023-03-14T13:57:49.432Z,98904.67
2023-03-14T14:00:21.706Z,98899.92
2023-03-14T14:02:49.394Z,98896.90
2023-03-14T14:05:16.642Z,98921.23
2023-03-14T14:07:45.399Z,98916.30
2023-03-14T14:10:14.867Z,98924.70
2023-03-14T14:12:51.127Z,98929.35
2023-03-14T14:15:22.281Z,98954.04
2023-03-14T14:18:20.864Z,98963.27
2023-03-14T14:20:49.054Z,98982.02
2023-03-14T14:23:29.812Z,98995.02
2023-03-14T14:25:58.774Z,99010.18
2023-03-14T14:28:33.182Z,99010.80
2023-03-14T14:31:15.762Z,99021.33
2023-03-14T14:33:58.986Z,99024.89
2023-03-14T14:36:25.550Z,99033.77
2023-03-14T14:39:06.132Z,99040.40
2023-03-14T14:41:41.131Z,99045.98
2023-03-14T14:44:08.184Z,99052.55
2023-03-14T14:46:38.413Z,99067.61
2023-03-14T14:49:14.494Z,99082.44
2023-03-14T14:51:49.093Z,99097.83
2023-03-14T14:54:35.186Z,99104.23
2023-03-14T14:57:07.337Z,99117.73
2023-03-14T14:59:45.681Z,99131.48
2023-03-14T15:02:55.478Z,99137.90
2023-03-14T15:05:24.575Z,99145.53
2023-03-14T15:07:52.351Z,99148.94
2023-03-14T15:10:21.777Z,99158.24
2023-03-14T15:12:51.283Z,99168.32
2023-03-14T15:15:18.596Z,99175.09
2023-03-14T15:17:46.016Z,99184.46
2023-03-14T15:20:15.711Z,99195.94
2023-03-14T15:22:43.028Z,99203.88
2023-03-14T15:25:18.622Z,99207.64
2023-03-14T15:27:53.755Z,99214.42
2023-03-14T15:30:20.469Z,99223.29
2023-03-14T15:32:47.411Z,99224.84
2023-03-14T15:35:17.680Z,99224.38
2023-03-14T15:37:45.665Z,99226.54
2023-03-14T15:40:15.139Z,99234.71
2023-03-14T15:42:42.513Z,99237.65
2023-03-14T15:45:10.142Z,99248.52
2023-03-14T15:47:37.042Z,99248.08
2023-03-14T15:50:04.407Z,99259.31
2023-03-14T15:52:31.248Z,99261.51
2023-03-14T15:54:57.755Z,99270.36
2023-03-14T15:57:24.366Z,99278.46
2023-03-14T15:59:51.249Z,99286.38
2023-03-14T16:02:17.891Z,99287.84
2023-03-14T16:04:44.717Z,99298.60
2023-03-14T16:07:11.658Z,99300.67
2023-03-14T16:09:38.628Z,99315.36
2023-03-14T16:12:06.009Z,99322.84
2023-03-14T16:14:32.775Z,99325.02
2023-03-14T16:17:00.178Z,99338.70
2023-03-14T16:19:27.197Z,99341.88
2023-03-14T16:21:54.147Z,99350.81
2023-03-14T16:24:20.720Z,99348.55
2023-03-14T16:26:48.488Z,99361.80
2023-03-14T16:29:15.232Z,99359.05
2023-03-14T16:31:43.379Z,99366.41
2023-03-14T16:34:10.483Z,99368.19
2023-03-14T16:36:37.395Z,99373.35
2023-03-14T16:39:04.616Z,99383.59
2023-03-14T16:41:31.745Z,99394.86
2023-03-14T16:43:59.518Z,99393.79
2023-03-14T16:46:28.507Z,99399.98
2023-03-14T16:48:55.561Z,99407.07
2023-03-14T16:51:22.734Z,99423.66
2023-03-14T16:53:49.964Z,99429.00
2023-03-14T16:56:17.097Z,99436.05
2023-03-14T16:58:44.596Z,99444.69
2023-03-14T17:01:13.650Z,99445.73
2023-03-14T17:03:42.662Z,99459.04
2023-03-14T17:06:15.022Z,99456.73
2023-03-14T17:08:42.175Z,99471.40
2023-03-14T17:11:09.507Z,99476.33
2023-03-14T17:13:37.168Z,99481.67
2023-03-14T17:16:04.168Z,99486.84
2023-03-14T17:18:31.895Z,99506.23
2023-03-14T17:20:59.341Z,99504.71
2023-03-14T17:23:27.425Z,99513.05
2023-03-14T17:25:54.055Z,99522.65
2023-03-14T17:28:22.488Z,99537.98
2023-03-14T17:30:49.537Z,99534.73
2023-03-14T17:33:16.830Z,99543.08
2023-03-14T17:35:44.470Z,99549.52
2023-03-14T17:38:11.614Z,99554.23
2023-03-14T17:40:38.485Z,99556.70
2023-03-14T17:43:05.183Z,99576.45
2023-03-14T17:45:31.868Z,99573.45
2023-03-14T17:47:58.732Z,99583.30
2023-03-14T17:50:25.729Z,99593.87
2023-03-14T17:52:52.797Z,99604.77
2023-03-14T17:55:19.609Z,99610.10
2023-03-14T17:57:46.671Z,99619.64
2023-03-14T18:00:14.522Z,99629.91
2023-03-14T18:02:43.941Z,99630.68
2023-03-14T18:05:10.986Z,99636.36
2023-03-14T18:07:38.600Z,99648.94
2023-03-14T18:10:06.517Z,99659.04
2023-03-14T18:12:33.434Z,99661.85
2023-03-14T18:15:01.236Z,99657.48
2023-03-14T18:17:28.064Z,99669.52
2023-03-14T18:19:56.326Z,99676.53
2023-03-14T18:22:23.292Z,99674.63
2023-03-14T18:24:50.354Z,99683.09
2023-03-14T18:27:18.049Z,99690.46
2023-03-14T18:29:45.027Z,99704.52
2023-03-14T18:32:12.272Z,99708.39
2023-03-14T18:34:38.900Z,99717.17
2023-03-14T18:37:05.587Z,99727.48
2023-03-14T18:39:32.174Z,99731.06
2023-03-14T18:41:58.756Z,99737.30
2023-03-14T18:44:25.412Z,99744.34
2023-03-14T18:46:52.067Z,99747.00
2023-03-14T18:49:20.733Z,99757.16
2023-03-14T18:51:48.065Z,99756.36
2023-03-14T18:54:14.733Z,99764.31
2023-03-14T18:56:41.456Z,99766.18
2023-03-14T18:59:09.319Z,99779.16
2023-03-14T19:01:37.310Z,99785.46
2023-03-14T19:04:04.835Z,99782.75
2023-03-14T19:06:32.884Z,99789.41
2023-03-14T19:09:00.635Z,99796.78
2023-03-14T19:11:27.675Z,99796.66
2023-03-14T19:13:57.173Z,99792.38
2023-03-14T19:16:27.835Z,99802.61
2023-03-14T19:18:55.481Z,99809.28
2023-03-14T19:21:28.038Z,99806.73
2023-03-14T19:23:54.688Z,99814.50
2023-03-14T19:26:21.758Z,99818.27
2023-03-14T19:28:48.414Z,99824.79
2023-03-14T19:31:15.371Z,99830.11
2023-03-14T19:33:42.577Z,99831.55
2023-03-14T19:36:21.321Z,99836.98
2023-03-14T19:38:48.656Z,99850.91
2023-03-14T19:41:15.300Z,99856.66
2023-03-14T19:43:42.245Z,99859.02
2023-03-14T19:46:09.553Z,99865.93
2023-03-14T19:48:37.494Z,99874.99
2023-03-14T19:51:07.163Z,99876.58
2023-03-14T19:53:35.554Z,99876.02
2023-03-14T19:56:02.420Z,99880.23
2023-03-14T19:58:28.950Z,99891.51
2023-03-14T20:00:56.430Z,99893.13
2023-03-14T20:03:23.846Z,99894.79
2023-03-14T20:05:53.456Z,99900.38
2023-03-14T20:08:21.553Z,99904.36
2023-03-14T20:10:48.310Z,99910.38
2023-03-14T20:13:21.373Z,99921.14
2023-03-14T20:15:49.136Z,99928.67
2023-03-14T20:18:16.599Z,99933.00
2023-03-14T20:20:43.213Z,99933.34
2023-03-14T20:23:09.867Z,99938.50
2023-03-14T20:25:37.652Z,99945.04
2023-03-14T20:28:05.293Z,99945.83
2023-03-14T20:30:32.625Z,99951.49
2023-03-14T20:32:59.468Z,99956.22
2023-03-14T20:35:27.126Z,99961.47
2023-03-14T20:37:56.153Z,99968.50
2023-03-14T20:40:24.156Z,99969.61
2023-03-14T20:42:51.269Z,99977.75
2023-03-14T20:45:18.713Z,99980.71
2023-03-14T20:47:45.344Z,99981.60
2023-03-14T20:50:13.201Z,99983.45
2023-03-14T20:52:40.053Z,99985.82
2023-03-14T20:55:07.044Z,99988.74
2023-03-14T20:57:33.762Z,99990.70
2023-03-14T21:00:00.899Z,100000.89
2023-03-14T21:02:27.687Z,100001.42
2023-03-14T21:04:57.371Z,100013.17
2023-03-14T21:07:24.022Z,100017.70
2023-03-14T21:09:50.602Z,100021.02
2023-03-14T21:12:17.359Z,100021.39
2023-03-14T21:14:44.294Z,100021.34
2023-03-14T21:17:10.969Z,100019.08
2023-03-14T21:19:37.711Z,100017.45
2023-03-14T21:22:05.707Z,100020.08
2023-03-14T21:24:34.268Z,100019.02
2023-03-14T21:27:01.166Z,100018.87
2023-03-14T21:29:27.891Z,100017.56
2023-03-14T21:31:54.669Z,100023.56
2023-03-14T21:34:26.518Z,100028.32
2023-03-14T21:36:54.018Z,100031.84
2023-03-14T21:39:20.736Z,100031.64
2023-03-14T21:41:47.477Z,100032.33
2023-03-14T21:44:16.149Z,100035.36
2023-03-14T21:46:46.065Z,100037.20
2023-03-14T21:49:16.773Z,100037.48
2023-03-14T21:51:46.607Z,100038.83
2023-03-14T21:54:15.355Z,100043.34
2023-03-14T21:56:43.971Z,100041.69
2023-03-14T21:59:11.462Z,100046.41
2023-03-14T22:01:38.287Z,100046.35
2023-03-14T22:04:05.121Z,100051.45
2023-03-14T22:06:32.752Z,100053.81
2023-03-14T22:08:59.707Z,100055.48
2023-03-14T22:11:26.671Z,100050.14
2023-03-14T22:13:53.841Z,100050.91
2023-03-14T22:16:20.720Z,100055.34
2023-03-14T22:18:47.683Z,100056.16
2023-03-14T22:21:14.590Z,100054.14
2023-03-14T22:23:41.411Z,100059.98
2023-03-14T22:26:08.151Z,100058.33
2023-03-14T22:28:35.042Z,100058.02
2023-03-14T22:31:03.655Z,100065.27
2023-03-14T22:33:31.515Z,100063.52
2023-03-14T22:35:58.539Z,100065.59
2023-03-14T22:38:25.440Z,100071.86
2023-03-14T22:41:00.979Z,100069.11
2023-03-14T22:43:28.740Z,100068.33
2023-03-14T22:46:03.955Z,100071.15
2023-03-14T22:48:31.457Z,100071.50
2023-03-14T22:50:58.118Z,100068.39
2023-03-14T22:53:25.613Z,100074.83
2023-03-14T22:56:03.320Z,100078.47
2023-03-14T22:58:31.074Z,100079.55
2023-03-14T23:00:57.743Z,100083.36
2023-03-14T23:03:24.486Z,100084.89
2023-03-14T23:05:51.352Z,100082.36
2023-03-14T23:08:17.923Z,100081.33
2023-03-14T23:10:44.929Z,100089.41
2023-03-14T23:13:15.604Z,100092.16
2023-03-14T23:15:43.506Z,100097.94
2023-03-14T23:18:12.394Z,100099.25
2023-03-14T23:20:39.259Z,100102.30
2023-03-14T23:23:09.083Z,100109.44
2023-03-14T23:25:52.166Z,100117.02
2023-03-14T23:28:19.620Z,100114.38
2023-03-14T23:30:46.431Z,100108.39
2023-03-14T23:33:14.949Z,100108.52
2023-03-14T23:35:41.703Z,100105.30
2023-03-14T23:38:08.466Z,100108.43
2023-03-14T23:40:35.835Z,100109.19
2023-03-14T23:43:02.726Z,100110.41
2023-03-14T23:45:29.365Z,100109.93
2023-03-14T23:47:57.685Z,100113.56
2023-03-14T23:50:24.589Z,100119.50
2023-03-14T23:52:51.306Z,100117.80
2023-03-14T23:55:18.438Z,100120.66
2023-03-14T23:57:45.201Z,100119.63
